createdAt,value
2018-07-01T00:02:01.948Z,58.30
2018-07-01T00:07:01.193Z,59.50
2018-07-01T00:09:31.592Z,60.20
2018-07-01T00:14:30.151Z,62.00
2018-07-01T00:17:01.276Z,62.90
2018-07-01T00:19:31.829Z,63.90
2018-07-01T00:24:31.244Z,66.10
2018-07-01T00:27:00.667Z,67.00
2018-07-01T00:29:30.144Z,68.00
2018-07-01T00:31:59.772Z,69.10
2018-07-01T00:34:29.104Z,70.50
2018-07-01T00:36:58.596Z,71.60
2018-07-01T00:39:27.932Z,72.60
2018-07-01T00:41:58.006Z,73.80
2018-07-01T00:44:28.620Z,74.60
2018-07-01T00:46:58.080Z,75.40
2018-07-01T00:49:27.416Z,76.30
2018-07-01T00:51:56.688Z,77.10
2018-07-01T00:54:26.064Z,77.90
2018-07-01T00:56:55.471Z,78.60
2018-07-01T01:04:23.361Z,80.60
2018-07-01T01:06:52.693Z,81.00
2018-07-01T01:09:22.721Z,81.60
2018-07-01T01:11:52.155Z,82.20
2018-07-01T01:16:50.485Z,83.20
2018-07-01T01:19:24.734Z,83.60
2018-07-01T01:21:54.919Z,84.10
2018-07-01T01:24:24.339Z,84.30
2018-07-01T01:26:53.709Z,84.70
2018-07-01T01:31:53.722Z,85.20
2018-07-01T01:34:23.197Z,85.40
2018-07-01T01:36:52.702Z,85.80
2018-07-01T01:39:26.080Z,86.10
2018-07-01T01:42:00.801Z,86.40
2018-07-01T01:45:10.215Z,86.60
2018-07-01T01:47:46.834Z,87.00
2018-07-01T01:50:21.212Z,87.30
2018-07-01T01:52:54.477Z,87.50
2018-07-01T01:56:27.175Z,87.80
2018-07-01T01:59:08.739Z,88.00
2018-07-01T02:01:49.945Z,88.20
2018-07-01T02:04:34.603Z,88.50
2018-07-01T02:07:07.657Z,88.80
2018-07-01T02:09:38.061Z,89.00
2018-07-01T02:12:09.846Z,89.30
2018-07-01T02:14:42.054Z,89.60
2018-07-01T02:17:15.528Z,89.70
2018-07-01T02:19:45.637Z,89.90
2018-07-01T02:24:48.358Z,90.20
2018-07-01T02:29:47.959Z,90.30
2018-07-01T02:32:17.333Z,90.40
2018-07-01T02:34:46.693Z,90.40
2018-07-01T02:37:16.880Z,90.50
2018-07-01T02:39:46.343Z,90.50
2018-07-01T02:42:15.763Z,90.50
2018-07-01T02:44:45.115Z,90.60
2018-07-01T02:52:13.884Z,90.70
2018-07-01T02:54:43.731Z,90.70
2018-07-01T02:57:13.065Z,90.80
2018-07-01T02:59:42.443Z,90.80
2018-07-01T03:04:40.860Z,90.90
2018-07-01T03:07:10.748Z,90.90
2018-07-01T03:12:09.880Z,91.00
2018-07-01T03:14:40.069Z,91.10
2018-07-01T03:17:09.614Z,91.10
2018-07-01T03:19:39.023Z,91.10
2018-07-01T03:22:08.511Z,91.20
2018-07-01T03:24:38.131Z,91.30
2018-07-01T03:27:07.580Z,91.40
2018-07-01T03:29:37.012Z,91.40
2018-07-01T03:34:35.244Z,91.60
2018-07-01T03:37:04.645Z,91.50
2018-07-01T03:39:34.006Z,91.50
2018-07-01T03:44:32.299Z,91.50
2018-07-01T03:49:31.126Z,91.50
2018-07-01T03:52:00.511Z,91.30
2018-07-01T03:56:58.772Z,91.40
2018-07-01T03:59:28.341Z,91.30
2018-07-01T04:01:57.731Z,91.10
2018-07-01T04:04:27.075Z,91.10
2018-07-01T04:06:56.476Z,90.80
2018-07-01T04:09:25.898Z,90.70
2018-07-01T04:14:24.888Z,90.60
2018-07-01T04:16:54.260Z,90.40
2018-07-01T04:19:28.133Z,90.20
2018-07-01T04:24:26.452Z,89.90
2018-07-01T04:26:55.870Z,89.50
2018-07-01T04:29:26.094Z,89.10
2018-07-01T04:31:55.427Z,89.00
2018-07-01T04:34:24.865Z,88.60
2018-07-01T04:36:54.183Z,87.90
2018-07-01T04:39:23.773Z,87.40
2018-07-01T04:41:53.399Z,87.20
2018-07-01T04:44:23.269Z,86.70
2018-07-01T04:46:53.208Z,86.40
2018-07-01T04:49:22.650Z,85.90
2018-07-01T04:51:52.247Z,85.80
2018-07-01T04:54:22.005Z,85.00
2018-07-01T04:59:20.426Z,83.80
2018-07-01T05:01:49.929Z,83.70
2018-07-01T05:04:19.923Z,83.30
2018-07-01T05:06:49.259Z,83.10
2018-07-01T05:09:18.654Z,83.10
2018-07-01T05:11:48.093Z,82.90
2018-07-01T05:14:17.459Z,82.50
2018-07-01T05:16:46.868Z,82.50
2018-07-01T05:19:16.275Z,82.50
2018-07-01T05:21:45.664Z,82.20
2018-07-01T05:24:15.003Z,82.10
2018-07-01T05:26:44.352Z,81.90
2018-07-01T05:29:13.754Z,81.40
2018-07-01T05:31:43.175Z,80.70
2018-07-01T05:34:12.476Z,80.00
2018-07-01T05:36:41.884Z,79.30
2018-07-01T05:39:13.005Z,78.80
2018-07-01T05:41:42.405Z,78.40
2018-07-01T05:44:11.728Z,77.90
2018-07-01T05:46:41.626Z,77.50
2018-07-01T05:49:10.989Z,77.10
2018-07-01T05:51:40.465Z,76.50
2018-07-01T05:54:09.859Z,75.50
2018-07-01T05:56:40.092Z,74.60
2018-07-01T05:59:09.488Z,73.70
2018-07-01T06:01:38.991Z,73.50
2018-07-01T06:04:08.367Z,72.50
2018-07-01T06:06:37.890Z,71.80
2018-07-01T06:09:09.373Z,72.30
2018-07-01T06:14:07.733Z,72.60
2018-07-01T06:16:37.141Z,73.30
2018-07-01T06:21:35.955Z,73.00
2018-07-01T06:24:05.991Z,72.90
2018-07-01T06:26:36.308Z,73.70
2018-07-01T06:29:07.069Z,73.20
2018-07-01T06:31:36.771Z,72.70
2018-07-01T06:36:35.069Z,71.50
2018-07-01T06:39:06.950Z,71.50
2018-07-01T06:41:36.432Z,68.80
2018-07-01T06:46:35.081Z,68.60
2018-07-01T06:49:04.894Z,67.60
2018-07-01T06:51:36.701Z,65.40
2018-07-01T06:54:06.193Z,61.90
2018-07-01T06:59:04.572Z,61.00
2018-07-01T07:04:03.396Z,61.50
2018-07-01T07:06:33.814Z,61.50
2018-07-01T07:11:33.625Z,59.60
2018-07-01T07:14:03.063Z,59.80
2018-07-01T07:19:01.532Z,57.80
2018-07-01T07:24:00.048Z,55.40
2018-07-01T07:28:59.411Z,53.50
2018-07-01T07:31:29.627Z,53.00
2018-07-01T07:33:59.935Z,51.40
2018-07-01T07:36:29.851Z,51.70
2018-07-01T07:38:59.961Z,51.90
2018-07-01T07:41:30.115Z,50.90
2018-07-01T07:43:59.540Z,50.30
2018-07-01T07:46:28.977Z,50.50
2018-07-01T07:48:59.170Z,49.10
2018-07-01T07:51:28.849Z,48.20
2018-07-01T07:54:04.093Z,44.10
2018-07-01T08:01:33.051Z,44.30
2018-07-01T08:06:32.283Z,43.40
2018-07-01T08:09:01.767Z,42.10
2018-07-01T08:11:31.124Z,41.70
2018-07-01T08:14:00.474Z,41.80
2018-07-01T08:18:58.797Z,41.80
2018-07-01T08:21:28.199Z,41.20
2018-07-01T08:23:57.706Z,40.70
2018-07-01T08:26:27.254Z,41.70
2018-07-01T08:28:56.882Z,42.50
2018-07-01T08:31:26.294Z,41.90
2018-07-01T08:36:24.823Z,41.70
2018-07-01T08:38:54.336Z,42.40
2018-07-01T08:41:23.806Z,42.80
2018-07-01T08:43:53.539Z,42.50
2018-07-01T08:46:23.657Z,41.50
2018-07-01T08:53:50.878Z,40.30
2018-07-01T08:56:20.898Z,39.00
2018-07-01T08:58:51.509Z,39.20
2018-07-01T09:01:20.893Z,38.70
2018-07-01T09:03:50.427Z,38.40
2018-07-01T09:06:19.885Z,37.30
2018-07-01T09:08:49.869Z,36.10
2018-07-01T09:13:48.357Z,36.30
2018-07-01T09:16:17.750Z,35.80
2018-07-01T09:21:16.003Z,36.00
2018-07-01T09:23:45.449Z,36.50
2018-07-01T09:26:14.829Z,36.40
2018-07-01T09:28:44.273Z,36.30
2018-07-01T09:33:42.650Z,37.00
2018-07-01T09:36:12.192Z,36.20
2018-07-01T09:38:42.305Z,35.30
2018-07-01T09:41:12.409Z,34.40
2018-07-01T09:43:42.453Z,34.60
2018-07-01T09:46:11.918Z,35.50
2018-07-01T09:48:42.014Z,36.50
2018-07-01T09:53:57.996Z,37.30
2018-07-01T09:56:27.356Z,36.50
2018-07-01T10:01:26.891Z,35.00
2018-07-01T10:03:56.871Z,34.50
2018-07-01T10:06:54.731Z,33.60
2018-07-01T10:09:24.211Z,33.90
2018-07-01T10:11:54.340Z,33.70
2018-07-01T10:14:23.805Z,33.50
2018-07-01T10:16:54.958Z,33.20
2018-07-01T10:19:24.538Z,32.70
2018-07-01T10:21:54.016Z,33.10
2018-07-01T10:26:52.369Z,33.20
2018-07-01T10:29:22.612Z,33.00
2018-07-01T10:31:52.054Z,32.30
2018-07-01T10:36:51.134Z,31.30
2018-07-01T10:39:20.573Z,31.10
2018-07-01T10:46:47.958Z,33.50
2018-07-01T10:49:17.975Z,33.90
2018-07-01T10:51:48.091Z,34.10
2018-07-01T10:54:17.468Z,33.50
2018-07-01T10:56:46.892Z,33.70
2018-07-01T10:59:16.527Z,33.90
2018-07-01T11:01:45.909Z,34.30
2018-07-01T11:04:15.391Z,33.90
2018-07-01T11:09:14.215Z,33.40
2018-07-01T11:11:43.819Z,33.50
2018-07-01T11:16:42.348Z,33.50
2018-07-01T11:19:13.307Z,32.60
2018-07-01T11:21:42.748Z,32.50
2018-07-01T11:24:13.967Z,32.20
2018-07-01T11:26:43.756Z,32.80
2018-07-01T11:36:42.290Z,32.10
2018-07-01T11:39:12.284Z,32.00
2018-07-01T11:41:41.742Z,31.50
2018-07-01T11:46:40.428Z,30.80
2018-07-01T11:49:09.868Z,31.10
2018-07-01T11:54:08.207Z,30.40
2018-07-01T11:56:37.502Z,30.30
2018-07-01T11:59:06.916Z,29.70
2018-07-01T12:01:36.322Z,28.80
2018-07-01T12:04:06.287Z,28.50
2018-07-01T12:06:35.749Z,28.40
2018-07-01T12:09:07.505Z,28.60
2018-07-01T12:11:37.199Z,28.80
2018-07-01T12:14:06.617Z,28.70
2018-07-01T12:16:36.063Z,29.20
2018-07-01T12:19:05.905Z,28.90
2018-07-01T12:21:35.286Z,28.60
2018-07-01T12:24:05.130Z,27.90
2018-07-01T12:26:35.158Z,27.40
2018-07-01T12:29:04.776Z,26.10
2018-07-01T12:31:34.167Z,25.50
2018-07-01T12:34:03.703Z,25.20
2018-07-01T12:39:02.490Z,25.20
2018-07-01T12:41:32.658Z,25.80
2018-07-01T12:44:02.209Z,25.80
2018-07-01T12:46:31.566Z,25.60
2018-07-01T12:49:00.924Z,26.50
2018-07-01T12:51:30.614Z,27.40
2018-07-01T12:54:00.281Z,27.60
2018-07-01T12:56:29.945Z,27.70
2018-07-01T13:01:28.768Z,28.10
2018-07-01T13:06:27.142Z,28.00
2018-07-01T13:08:56.489Z,27.10
2018-07-01T13:11:25.957Z,26.80
2018-07-01T13:13:55.424Z,27.40
2018-07-01T13:16:24.953Z,28.20
2018-07-01T13:18:54.516Z,28.30
2018-07-01T13:21:23.846Z,29.00
2018-07-01T13:23:53.175Z,29.10
2018-07-01T13:26:22.708Z,29.10
2018-07-01T13:28:52.031Z,29.30
2018-07-01T13:31:21.462Z,28.30
2018-07-01T13:38:50.363Z,25.00
2018-07-01T13:41:19.728Z,25.30
2018-07-01T13:43:49.198Z,26.20
2018-07-01T13:51:16.466Z,28.90
2018-07-01T13:53:46.713Z,28.90
2018-07-01T13:56:16.207Z,28.20
2018-07-01T13:58:45.556Z,27.10
2018-07-01T14:01:14.973Z,26.00
2018-07-01T14:03:44.332Z,25.30
2018-07-01T14:06:14.523Z,24.40
2018-07-01T14:08:43.925Z,23.70
2018-07-01T14:11:13.350Z,23.70
2018-07-01T14:13:42.723Z,23.40
2018-07-01T14:16:12.480Z,24.10
2018-07-01T14:18:41.972Z,24.20
2018-07-01T14:23:40.336Z,24.20
2018-07-01T14:26:09.690Z,24.20
2018-07-01T14:28:39.086Z,25.30
2018-07-01T14:31:08.535Z,26.60
2018-07-01T14:33:37.896Z,27.10
2018-07-01T14:36:07.245Z,27.40
2018-07-01T14:38:36.936Z,28.70
2018-07-01T14:41:06.336Z,29.50
2018-07-01T14:43:36.172Z,29.80
2018-07-01T14:46:05.896Z,29.10
2018-07-01T14:53:33.703Z,28.50
2018-07-01T14:56:03.131Z,29.50
2018-07-01T14:58:32.814Z,29.00
2018-07-01T15:01:02.285Z,27.00
2018-07-01T15:03:32.133Z,24.90
2018-07-01T15:06:04.918Z,23.70
2018-07-01T15:08:34.365Z,22.40
2018-07-01T15:11:03.857Z,22.20
2018-07-01T15:16:02.307Z,22.60
2018-07-01T15:21:02.900Z,26.10
2018-07-01T15:23:32.332Z,27.60
2018-07-01T15:26:01.701Z,26.20
2018-07-01T15:28:31.232Z,25.20
2018-07-01T15:31:00.566Z,24.30
2018-07-01T15:38:30.505Z,22.70
2018-07-01T15:40:59.965Z,22.10
2018-07-01T15:43:29.375Z,21.80
2018-07-01T15:45:58.851Z,22.70
2018-07-01T15:48:28.333Z,24.00
2018-07-01T15:53:26.972Z,25.00
2018-07-01T15:55:56.688Z,25.20
2018-07-01T15:58:26.520Z,25.70
2018-07-01T16:03:24.815Z,25.00
2018-07-01T16:08:23.355Z,22.40
2018-07-01T16:10:53.056Z,22.50
2018-07-01T16:13:22.463Z,22.50
2018-07-01T16:15:51.925Z,23.20
2018-07-01T16:18:21.268Z,23.60
2018-07-01T16:20:50.620Z,22.70
2018-07-01T16:23:19.995Z,22.80
2018-07-01T16:25:54.614Z,22.60
2018-07-01T16:28:29.170Z,22.10
2018-07-01T16:30:58.544Z,22.00
2018-07-01T16:33:28.733Z,21.70
2018-07-01T16:35:58.083Z,22.00
2018-07-01T16:38:28.800Z,21.50
2018-07-01T16:40:58.200Z,21.40
2018-07-01T16:45:56.418Z,21.50
2018-07-01T16:48:25.759Z,21.50
2018-07-01T16:50:55.214Z,22.30
2018-07-01T16:53:24.619Z,23.60
2018-07-01T16:55:53.983Z,25.00
2018-07-01T16:58:23.315Z,26.40
2018-07-01T17:00:52.719Z,27.30
2018-07-01T17:08:19.829Z,28.40
2018-07-01T17:13:18.233Z,30.00
2018-07-01T17:15:47.806Z,31.00
2018-07-01T17:18:17.208Z,30.40
2018-07-01T17:20:47.224Z,30.50
2018-07-01T17:23:16.536Z,30.50
2018-07-01T17:25:55.226Z,30.90
2018-07-01T17:28:25.956Z,31.20
2018-07-01T17:31:00.847Z,31.40
2018-07-01T17:33:33.261Z,31.80
2018-07-01T17:36:02.648Z,32.20
2018-07-01T17:38:32.936Z,32.60
2018-07-01T17:43:31.384Z,33.40
2018-07-01T17:46:00.744Z,33.60
2018-07-01T17:48:30.165Z,33.80
2018-07-01T17:50:59.516Z,34.60
2018-07-01T17:53:40.061Z,35.20
2018-07-01T17:56:09.378Z,36.40
2018-07-01T17:58:38.683Z,37.10
2018-07-01T18:01:08.521Z,37.50
2018-07-01T18:03:37.902Z,37.70
2018-07-01T18:08:36.707Z,38.00
2018-07-01T18:13:35.219Z,37.70
2018-07-01T18:16:04.716Z,38.00
2018-07-01T18:18:34.136Z,38.30
2018-07-01T18:21:03.559Z,38.50
2018-07-01T18:24:02.964Z,38.60
2018-07-01T18:26:03.100Z,38.90
2018-07-01T18:28:45.192Z,39.10
2018-07-01T18:33:32.516Z,39.70
2018-07-01T18:36:02.086Z,39.70
2018-07-01T18:38:31.463Z,39.60
2018-07-01T18:41:00.868Z,39.50
2018-07-01T18:43:30.985Z,39.30
2018-07-01T18:46:01.129Z,39.10
2018-07-01T18:48:30.619Z,39.00
2018-07-01T18:51:00.191Z,38.70
2018-07-01T18:53:30.799Z,38.80
2018-07-01T18:56:01.387Z,39.00
2018-07-01T19:01:00.307Z,39.10
2018-07-01T19:05:59.255Z,39.00
2018-07-01T19:08:29.547Z,38.80
2018-07-01T19:11:01.278Z,38.80
2018-07-01T19:13:32.498Z,38.90
2018-07-01T19:16:02.624Z,38.90
2018-07-01T19:21:05.023Z,39.10
2018-07-01T19:28:33.931Z,38.80
2018-07-01T19:31:03.742Z,38.50
2018-07-01T19:33:33.239Z,39.10
2018-07-01T19:36:03.049Z,39.10
2018-07-01T19:38:32.452Z,39.40
2018-07-01T19:41:01.865Z,39.50
2018-07-01T19:46:01.710Z,39.50
2018-07-01T19:48:31.395Z,39.60
2018-07-01T19:51:03.435Z,39.60
2018-07-01T19:53:39.758Z,39.80
2018-07-01T19:56:09.960Z,39.80
2018-07-01T19:58:39.478Z,39.80
2018-07-01T20:03:38.940Z,40.40
2018-07-01T20:06:14.866Z,40.20
2018-07-01T20:08:45.359Z,40.00
2018-07-01T20:11:15.020Z,40.30
2018-07-01T20:13:45.224Z,40.50
2018-07-01T20:16:25.270Z,40.70
2018-07-01T20:18:55.381Z,40.90
2018-07-01T20:21:24.745Z,42.00
2018-07-01T20:23:55.586Z,41.80
2018-07-01T20:26:25.894Z,42.00
2018-07-01T20:28:56.853Z,42.60
2018-07-01T20:31:26.390Z,43.10
2018-07-01T20:36:27.725Z,43.70
2018-07-01T20:41:27.877Z,44.90
2018-07-01T20:43:57.398Z,45.30
2018-07-01T20:46:27.600Z,45.70
2018-07-01T20:53:55.778Z,47.50
2018-07-01T20:56:25.231Z,48.00
2018-07-01T20:58:55.234Z,47.90
2018-07-01T21:01:24.964Z,48.20
2018-07-01T21:03:54.563Z,48.60
2018-07-01T21:06:24.165Z,49.10
2018-07-01T21:08:53.556Z,49.50
2018-07-01T21:13:51.822Z,50.40
2018-07-01T21:16:22.913Z,50.70
2018-07-01T21:18:52.413Z,51.10
2018-07-01T21:21:21.819Z,51.60
2018-07-01T21:23:51.115Z,52.10
2018-07-01T21:26:20.953Z,52.60
2018-07-01T21:31:19.459Z,53.70
2018-07-01T21:33:49.396Z,54.30
2018-07-01T21:36:19.954Z,55.10
2018-07-01T21:38:49.471Z,55.70
2018-07-01T21:41:18.964Z,56.30
2018-07-01T21:43:49.109Z,56.90
2018-07-01T21:46:18.544Z,57.60
2018-07-01T21:51:17.678Z,59.30
2018-07-01T21:53:47.268Z,60.30
2018-07-01T21:56:16.689Z,60.90
2018-07-01T21:58:46.260Z,62.20
2018-07-01T22:03:44.620Z,64.30
2018-07-01T22:06:14.173Z,65.70
2018-07-01T22:14:22.842Z,69.10
2018-07-01T22:16:52.680Z,70.40
2018-07-01T22:19:22.425Z,71.10
2018-07-01T22:21:53.082Z,71.90
2018-07-01T22:26:52.670Z,73.60
2018-07-01T22:29:23.051Z,74.30
2018-07-01T22:31:52.489Z,74.90
2018-07-01T22:34:22.451Z,75.20
2018-07-01T22:36:52.365Z,76.10
2018-07-01T22:39:23.912Z,76.30
2018-07-01T22:51:52.046Z,78.30
2018-07-01T22:54:21.548Z,78.70
2018-07-01T22:56:51.240Z,79.10
2018-07-01T22:59:20.643Z,79.40
2018-07-01T23:03:05.877Z,80.10
2018-07-01T23:05:35.788Z,80.10
2018-07-01T23:08:05.950Z,80.40
2018-07-01T23:10:35.416Z,80.90
2018-07-01T23:13:05.046Z,81.00
2018-07-01T23:15:34.472Z,81.40
2018-07-01T23:18:04.013Z,82.20
2018-07-01T23:20:33.432Z,81.80
2018-07-01T23:23:02.957Z,82.10
2018-07-01T23:28:02.532Z,82.80
2018-07-01T23:30:31.966Z,83.10
2018-07-01T23:33:01.559Z,83.50
2018-07-01T23:35:31.039Z,84.00
2018-07-01T23:38:00.448Z,84.10
2018-07-01T23:40:30.015Z,84.10
2018-07-01T23:42:59.743Z,84.50
2018-07-01T23:45:29.334Z,84.80
2018-07-01T23:47:58.789Z,84.30
2018-07-01T23:50:28.195Z,85.20
2018-07-01T23:52:57.672Z,85.30
2018-07-01T23:55:27.076Z,85.20
